Terminal Aerodrome Forecast
Issued by NWS

Home | Current Version | Previous Version | Text Only | Print | Product List | Glossary On
Versions: 1 2 3 4 5 6 7 8 9 10 11 12 13 14 15 16 17 18 19 20 21 22 23 24 25 26 27 28
000
FTUS45 KLKN 210807 AAA
TAFELY
TAF AMD
KELY 210807Z 2108/2206 18011G20KT P6SM SCT060 BKN100
     FM211300 22011G20KT P6SM SCT040 BKN080
     FM211700 36010KT 3SM RA BKN025 OVC035
     FM212200 36005KT 5SM -RASN BKN020 OVC030
     FM220200 VRB05KT P6SM VCSH BKN030=

USA.gov is the U.S. government's official web portal to all federal, state and local government web resources and services.